Terminal Aerodrome Forecast
Issued by NWS Green Bay, WI

Home | Current Version | Previous Version | Text Only | Print | Product List | Glossary On
Versions: 1 2 3 4 5 6 7 8 9 10 11 12 13 14 15 16 17 18 19 20 21 22 23 24 25 26 27 28 29 30 31 32 33 34
000
FTUS43 KGRB 241700
TAFGRB
TAF
KGRB 241736Z 2418/2518 23005KT P6SM SCT050
      TEMPO 2418/2422 BKN050
     FM242300 19006KT P6SM SCT100
     FM250600 20004KT P6SM SCT040 BKN100
     FM251200 20011KT P6SM SCT035 BKN090=

USA.gov is the U.S. government's official web portal to all federal, state and local government web resources and services.